createdAt,value
2023-06-05T00:02:17.269Z,1.48
2023-06-05T00:05:21.390Z,2.00
2023-06-05T00:08:25.555Z,1.67
2023-06-05T00:11:31.057Z,1.60
2023-06-05T00:14:35.005Z,1.50
2023-06-05T00:17:38.973Z,2.20
2023-06-05T00:20:42.854Z,1.55
2023-06-05T00:23:46.638Z,2.20
2023-06-05T00:26:51.854Z,1.45
2023-06-05T00:29:56.077Z,1.92
2023-06-05T00:33:00.182Z,1.70
2023-06-05T00:36:05.090Z,2.10
2023-06-05T00:39:10.050Z,1.98
2023-06-05T00:42:16.066Z,1.77
2023-06-05T00:45:20.023Z,2.10
2023-06-05T00:48:24.059Z,1.58
2023-06-05T00:51:27.908Z,1.63
2023-06-05T00:54:31.969Z,2.22
2023-06-05T00:57:37.265Z,1.58
2023-06-05T01:00:56.505Z,1.58
2023-06-05T01:04:01.356Z,1.58
2023-06-05T01:07:06.325Z,1.98
2023-06-05T01:10:11.231Z,1.63
2023-06-05T01:13:19.174Z,2.35
2023-06-05T01:16:32.432Z,1.88
2023-06-05T01:19:37.356Z,1.92
2023-06-05T01:22:42.931Z,2.05
2023-06-05T01:25:51.101Z,2.13
2023-06-05T01:28:55.820Z,2.05
2023-06-05T01:32:04.156Z,2.50
2023-06-05T01:35:18.451Z,1.80
2023-06-05T01:38:22.746Z,1.90
2023-06-05T01:41:28.830Z,1.88
2023-06-05T01:44:32.856Z,2.08
2023-06-05T01:47:37.667Z,1.88
2023-06-05T01:50:43.422Z,2.10
2023-06-05T01:53:49.846Z,1.85
2023-06-05T01:56:58.099Z,2.35
2023-06-05T02:00:14.352Z,1.95
2023-06-05T02:03:18.388Z,1.88
2023-06-05T02:06:22.936Z,2.28
2023-06-05T02:09:28.478Z,1.92
2023-06-05T02:12:35.752Z,1.83
2023-06-05T02:15:39.941Z,1.75
2023-06-05T02:18:43.694Z,1.85
2023-06-05T02:21:49.651Z,2.00
2023-06-05T02:24:55.018Z,2.10
2023-06-05T02:28:01.762Z,2.60
2023-06-05T02:31:06.048Z,2.28
2023-06-05T02:34:10.335Z,2.45
2023-06-05T02:37:14.574Z,2.05
2023-06-05T02:40:18.444Z,2.28
2023-06-05T02:43:23.748Z,2.33
2023-06-05T02:46:27.437Z,1.92
2023-06-05T02:49:31.699Z,2.47
2023-06-05T02:52:36.534Z,2.45
2023-06-05T02:55:47.353Z,2.45
2023-06-05T02:58:54.802Z,2.38
2023-06-05T03:01:59.703Z,1.88
2023-06-05T03:05:05.986Z,2.30
2023-06-05T03:08:10.321Z,2.30
2023-06-05T03:11:14.415Z,2.42
2023-06-05T03:14:20.359Z,2.20
2023-06-05T03:17:25.339Z,2.08
2023-06-05T03:20:30.068Z,2.35
2023-06-05T03:23:33.778Z,2.40
2023-06-05T03:26:42.996Z,2.03
2023-06-05T03:29:50.720Z,2.33
2023-06-05T03:32:55.312Z,2.40
2023-06-05T03:36:01.358Z,2.47
2023-06-05T03:39:05.200Z,2.25
2023-06-05T03:42:10.589Z,2.13
2023-06-05T03:45:16.859Z,2.50
2023-06-05T03:48:22.031Z,2.00
2023-06-05T03:51:30.904Z,2.30
2023-06-05T03:54:35.748Z,2.40
2023-06-05T03:57:42.446Z,2.33
2023-06-05T04:00:51.665Z,2.78
2023-06-05T04:03:56.362Z,2.58
2023-06-05T04:07:01.240Z,2.45
2023-06-05T04:10:05.799Z,2.25
2023-06-05T04:13:10.024Z,2.33
2023-06-05T04:16:17.427Z,2.30
2023-06-05T04:19:21.359Z,2.15
2023-06-05T04:22:28.318Z,2.20
2023-06-05T04:25:33.041Z,2.25
2023-06-05T04:28:38.169Z,2.85
2023-06-05T04:31:43.561Z,2.80
2023-06-05T04:34:47.882Z,1.95
2023-06-05T04:37:51.980Z,2.45
2023-06-05T04:40:57.153Z,2.80
2023-06-05T04:44:01.946Z,2.65
2023-06-05T04:47:09.288Z,2.60
2023-06-05T04:50:25.171Z,2.35
2023-06-05T04:53:32.552Z,2.67
2023-06-05T04:56:39.477Z,2.78
2023-06-05T04:59:43.812Z,2.90
2023-06-05T05:02:52.043Z,2.22
2023-06-05T05:06:01.537Z,3.45
2023-06-05T05:09:07.329Z,3.10
2023-06-05T05:12:12.774Z,2.70
2023-06-05T05:15:17.247Z,2.63
2023-06-05T05:18:22.592Z,3.10
2023-06-05T05:21:28.669Z,3.25
2023-06-05T05:24:32.658Z,3.05
2023-06-05T05:27:36.620Z,3.30
2023-06-05T05:30:40.345Z,2.60
2023-06-05T05:33:45.621Z,3.10
2023-06-05T05:36:50.925Z,3.25
2023-06-05T05:39:55.257Z,3.03
2023-06-05T05:43:00.060Z,2.58
2023-06-05T05:46:05.961Z,3.15
2023-06-05T05:49:11.656Z,2.53
2023-06-05T05:52:15.473Z,2.60
2023-06-05T05:55:19.357Z,2.97
2023-06-05T05:58:23.285Z,2.90
2023-06-05T06:01:27.063Z,3.00
2023-06-05T06:04:32.368Z,2.55
2023-06-05T06:07:36.765Z,2.38
2023-06-05T06:10:41.699Z,2.72
2023-06-05T06:13:45.510Z,2.40
2023-06-05T06:16:51.097Z,2.70
2023-06-05T06:19:56.468Z,3.05
2023-06-05T06:23:00.317Z,2.28
2023-06-05T06:26:07.700Z,1.83
2023-06-05T06:29:11.770Z,2.10
2023-06-05T06:32:16.095Z,2.95
2023-06-05T06:35:21.650Z,2.70
2023-06-05T06:38:28.381Z,2.40
2023-06-05T06:41:32.244Z,2.05
2023-06-05T06:44:39.776Z,2.78
2023-06-05T06:47:55.417Z,2.47
2023-06-05T06:51:04.999Z,2.50
2023-06-05T06:54:08.546Z,2.22
2023-06-05T06:57:13.085Z,2.63
2023-06-05T07:00:21.772Z,2.35
2023-06-05T07:03:26.975Z,1.90
2023-06-05T07:06:33.331Z,2.08
2023-06-05T07:09:37.459Z,1.58
2023-06-05T07:12:41.073Z,1.80
2023-06-05T07:15:45.211Z,1.85
2023-06-05T07:18:49.061Z,2.03
2023-06-05T07:21:54.002Z,1.88
2023-06-05T07:25:01.393Z,1.95
2023-06-05T07:28:05.580Z,1.75
2023-06-05T07:31:09.666Z,1.73
2023-06-05T07:34:16.959Z,1.88
2023-06-05T07:37:23.168Z,2.13
2023-06-05T07:40:27.626Z,1.70
2023-06-05T07:43:31.588Z,1.55
2023-06-05T07:46:36.066Z,1.92
2023-06-05T07:49:40.741Z,1.35
2023-06-05T07:52:46.055Z,1.85
2023-06-05T07:55:50.036Z,1.40
2023-06-05T07:58:53.902Z,1.75
2023-06-05T08:01:57.799Z,1.55
2023-06-05T08:05:02.013Z,1.40
2023-06-05T08:08:07.883Z,1.67
2023-06-05T08:11:12.183Z,1.52
2023-06-05T08:14:15.962Z,1.63
2023-06-05T08:17:20.006Z,1.67
2023-06-05T08:20:24.061Z,1.33
2023-06-05T08:23:29.697Z,1.38
2023-06-05T08:26:33.429Z,1.35
2023-06-05T08:29:38.265Z,1.50
2023-06-05T08:32:45.240Z,1.35
2023-06-05T08:35:49.355Z,1.45
2023-06-05T08:38:54.970Z,1.65
2023-06-05T08:42:01.826Z,2.08
2023-06-05T08:45:06.582Z,1.38
2023-06-05T08:48:12.470Z,1.50
2023-06-05T08:51:16.978Z,1.50
2023-06-05T08:54:23.565Z,1.55
2023-06-05T08:57:27.955Z,1.23
2023-06-05T09:00:32.171Z,1.05
2023-06-05T09:03:36.211Z,1.40
2023-06-05T09:06:40.849Z,1.73
2023-06-05T09:09:47.066Z,1.30
2023-06-05T09:12:58.022Z,1.10
2023-06-05T09:16:01.934Z,1.15
2023-06-05T09:19:05.606Z,1.30
2023-06-05T09:22:09.826Z,1.33
2023-06-05T09:25:15.784Z,1.20
2023-06-05T09:28:20.018Z,1.13
2023-06-05T09:31:25.226Z,1.17
2023-06-05T09:34:32.655Z,1.20
2023-06-05T09:37:37.803Z,1.27
2023-06-05T09:40:43.321Z,1.48
2023-06-05T09:43:49.507Z,1.30
2023-06-05T09:46:56.578Z,1.40
2023-06-05T09:50:00.780Z,1.20
2023-06-05T09:53:06.370Z,1.10
2023-06-05T09:56:12.353Z,1.38
2023-06-05T09:59:16.643Z,1.30
2023-06-05T10:02:21.974Z,0.85
2023-06-05T10:05:27.083Z,1.38
2023-06-05T10:08:31.785Z,1.30
2023-06-05T10:11:40.844Z,1.25
2023-06-05T10:14:45.269Z,1.33
2023-06-05T10:17:50.750Z,1.27
2023-06-05T10:20:55.511Z,1.10
2023-06-05T10:24:01.562Z,1.40
2023-06-05T10:27:20.424Z,0.95
2023-06-05T10:30:41.813Z,1.38
2023-06-05T10:33:52.735Z,1.23
2023-06-05T10:37:04.779Z,1.20
2023-06-05T10:40:09.130Z,0.93
2023-06-05T10:43:32.595Z,1.17
2023-06-05T10:46:37.414Z,1.40
2023-06-05T10:50:03.126Z,1.13
2023-06-05T10:53:09.564Z,1.13
2023-06-05T10:56:33.540Z,1.33
2023-06-05T10:59:37.527Z,1.20
2023-06-05T11:02:49.401Z,1.00
2023-06-05T11:06:08.041Z,1.13
2023-06-05T11:09:15.130Z,1.08
2023-06-05T11:12:19.208Z,1.25
2023-06-05T11:15:37.524Z,1.10
2023-06-05T11:18:41.970Z,1.10
2023-06-05T11:22:00.819Z,1.20
2023-06-05T11:25:23.272Z,0.90
2023-06-05T11:28:44.555Z,1.10
2023-06-05T11:31:48.524Z,1.20
2023-06-05T11:34:57.666Z,1.20
2023-06-05T11:38:09.847Z,1.00
2023-06-05T11:41:13.420Z,1.20
2023-06-05T11:44:18.583Z,1.40
2023-06-05T11:47:27.547Z,1.08
2023-06-05T11:50:32.036Z,1.00
2023-06-05T11:53:38.266Z,1.05
2023-06-05T11:56:49.385Z,1.42
2023-06-05T11:59:55.070Z,1.17
2023-06-05T12:03:00.806Z,1.20
2023-06-05T12:06:04.618Z,1.00
2023-06-05T12:09:11.865Z,1.02
2023-06-05T12:12:15.568Z,1.13
2023-06-05T12:15:21.631Z,1.05
2023-06-05T12:18:35.680Z,0.85
2023-06-05T12:21:39.100Z,1.50
2023-06-05T12:24:43.079Z,0.88
2023-06-05T12:27:47.177Z,1.30
2023-06-05T12:30:53.173Z,0.90
2023-06-05T12:33:56.819Z,1.20
2023-06-05T12:37:01.108Z,1.23
2023-06-05T12:40:09.575Z,1.27
2023-06-05T12:43:19.342Z,1.20
2023-06-05T12:46:24.266Z,1.10
2023-06-05T12:49:28.038Z,1.02
2023-06-05T12:52:31.963Z,0.90
2023-06-05T12:55:35.540Z,1.42
2023-06-05T12:58:39.160Z,1.10
2023-06-05T13:01:46.507Z,0.95
2023-06-05T13:04:50.224Z,1.58
2023-06-05T13:07:55.235Z,1.00
2023-06-05T13:10:58.898Z,0.95
2023-06-05T13:14:02.528Z,1.23
2023-06-05T13:17:07.901Z,1.40
2023-06-05T13:20:12.539Z,1.05
2023-06-05T13:23:16.387Z,1.00
2023-06-05T13:26:20.055Z,1.15
2023-06-05T13:29:24.043Z,1.10
2023-06-05T13:32:29.327Z,1.08
2023-06-05T13:35:33.337Z,1.20
2023-06-05T13:38:38.777Z,1.00
2023-06-05T13:41:42.765Z,1.00
2023-06-05T13:44:46.133Z,1.27
2023-06-05T13:47:51.090Z,1.50
2023-06-05T13:50:55.147Z,1.00
2023-06-05T13:53:58.908Z,1.20
2023-06-05T13:57:03.726Z,1.50
2023-06-05T14:00:08.292Z,1.23
2023-06-05T14:03:16.267Z,1.10
2023-06-05T14:06:20.556Z,1.20
2023-06-05T14:09:24.231Z,1.35
2023-06-05T14:12:27.964Z,1.15
2023-06-05T14:15:34.222Z,1.15
2023-06-05T14:18:39.100Z,1.13
2023-06-05T14:21:46.255Z,1.10
2023-06-05T14:24:50.303Z,1.30
2023-06-05T14:27:56.174Z,1.27
2023-06-05T14:31:01.312Z,1.48
2023-06-05T14:34:06.424Z,1.40
2023-06-05T14:37:13.157Z,1.13
2023-06-05T14:40:16.732Z,0.93
2023-06-05T14:43:20.654Z,1.25
2023-06-05T14:46:24.875Z,1.05
2023-06-05T14:49:30.140Z,1.00
2023-06-05T14:52:34.006Z,1.25
2023-06-05T14:55:38.377Z,1.17
2023-06-05T14:58:42.273Z,1.15
2023-06-05T15:01:46.447Z,1.25
2023-06-05T15:04:52.772Z,1.30
2023-06-05T15:07:56.851Z,1.13
2023-06-05T15:11:01.604Z,1.13
2023-06-05T15:14:05.284Z,1.10
2023-06-05T15:17:09.902Z,1.10
2023-06-05T15:20:14.923Z,1.23
2023-06-05T15:23:21.074Z,1.30
2023-06-05T15:26:24.573Z,1.67
2023-06-05T15:29:28.026Z,1.05
2023-06-05T15:32:31.984Z,1.15
2023-06-05T15:35:42.345Z,1.17
2023-06-05T15:38:46.304Z,1.40
2023-06-05T15:41:50.445Z,1.08
2023-06-05T15:44:54.963Z,0.93
2023-06-05T15:47:59.086Z,1.10
2023-06-05T15:51:05.531Z,1.30
2023-06-05T15:57:18.598Z,1.45
2023-06-05T16:00:24.655Z,1.40
2023-06-05T16:03:31.259Z,1.30
2023-06-05T16:06:36.443Z,0.90
2023-06-05T16:09:39.779Z,1.00
2023-06-05T16:12:43.616Z,1.25
2023-06-05T16:15:48.187Z,1.48
2023-06-05T16:18:51.593Z,1.17
2023-06-05T16:21:58.704Z,1.15
2023-06-05T16:25:05.066Z,1.33
2023-06-05T16:28:08.425Z,1.27
2023-06-05T16:31:15.920Z,1.38
2023-06-05T16:34:19.882Z,1.25
2023-06-05T16:37:30.712Z,1.30
2023-06-05T16:40:34.467Z,1.00
2023-06-05T16:43:38.126Z,1.30
2023-06-05T16:46:44.387Z,1.20
2023-06-05T16:49:49.374Z,1.13
2023-06-05T16:52:54.747Z,1.05
2023-06-05T16:55:58.552Z,1.35
2023-06-05T16:59:03.818Z,1.48
2023-06-05T17:02:10.467Z,1.30
2023-06-05T17:05:16.906Z,1.10
2023-06-05T17:08:22.082Z,1.35
2023-06-05T17:11:34.564Z,1.30
2023-06-05T17:14:39.886Z,1.10
2023-06-05T17:17:44.481Z,1.50
2023-06-05T17:20:51.042Z,1.40
2023-06-05T17:23:56.563Z,1.30
2023-06-05T17:27:03.068Z,1.20
2023-06-05T17:30:09.274Z,0.93
2023-06-05T17:33:12.935Z,1.25
2023-06-05T17:36:16.615Z,1.60
2023-06-05T17:39:23.192Z,1.45
2023-06-05T17:42:27.856Z,1.30
2023-06-05T17:45:34.780Z,1.33
2023-06-05T17:48:40.850Z,1.50
2023-06-05T17:51:48.201Z,1.10
2023-06-05T17:54:53.815Z,1.77
2023-06-05T17:57:58.173Z,1.40
2023-06-05T18:01:02.200Z,1.30
2023-06-05T18:04:06.632Z,1.30
2023-06-05T18:07:10.540Z,1.30
2023-06-05T18:10:15.651Z,1.30
2023-06-05T18:13:19.059Z,1.42
2023-06-05T18:16:22.792Z,1.08
2023-06-05T18:19:34.060Z,1.48
2023-06-05T18:22:39.287Z,1.58
2023-06-05T18:25:45.672Z,1.30
2023-06-05T18:28:49.263Z,1.63
2023-06-05T18:31:53.405Z,1.50
2023-06-05T18:34:57.474Z,1.33
2023-06-05T18:38:01.151Z,1.58
2023-06-05T18:41:06.353Z,1.38
2023-06-05T18:44:12.803Z,1.88
2023-06-05T18:47:16.247Z,1.17
2023-06-05T18:50:21.184Z,1.33
2023-06-05T18:53:24.744Z,2.08
2023-06-05T18:56:31.734Z,2.42
2023-06-05T18:59:35.429Z,1.33
2023-06-05T19:02:40.324Z,1.45
2023-06-05T19:05:46.626Z,1.10
2023-06-05T19:08:50.633Z,1.23
2023-06-05T19:11:55.421Z,1.33
2023-06-05T19:14:59.617Z,1.50
2023-06-05T19:18:03.330Z,1.50
2023-06-05T19:21:07.208Z,1.42
2023-06-05T19:24:11.055Z,1.35
2023-06-05T19:27:16.960Z,1.38
2023-06-05T19:30:20.654Z,1.55
2023-06-05T19:33:24.755Z,1.40
2023-06-05T19:36:28.717Z,1.48
2023-06-05T19:39:32.562Z,1.50
2023-06-05T19:42:37.447Z,1.55
2023-06-05T19:45:41.223Z,1.02
2023-06-05T19:48:45.504Z,2.00
2023-06-05T19:51:49.633Z,1.80
2023-06-05T19:54:54.738Z,1.40
2023-06-05T19:57:59.820Z,1.48
2023-06-05T20:01:04.330Z,1.40
2023-06-05T20:04:08.256Z,1.63
2023-06-05T20:07:11.984Z,1.45
2023-06-05T20:10:15.984Z,1.67
2023-06-05T20:13:21.717Z,1.58
2023-06-05T20:16:25.290Z,1.60
2023-06-05T20:19:29.126Z,1.23
2023-06-05T20:22:32.619Z,1.50
2023-06-05T20:25:36.360Z,1.67
2023-06-05T20:28:41.308Z,1.60
2023-06-05T20:31:44.838Z,1.50
2023-06-05T20:34:50.907Z,1.58
2023-06-05T20:37:56.727Z,1.90
2023-06-05T20:41:00.512Z,1.65
2023-06-05T20:44:05.668Z,1.38
2023-06-05T20:47:10.979Z,1.42
2023-06-05T20:50:14.963Z,1.63
2023-06-05T20:53:18.745Z,1.77
2023-06-05T20:56:27.236Z,1.30
2023-06-05T20:59:31.998Z,1.70
2023-06-05T21:02:35.844Z,1.73
2023-06-05T21:05:50.441Z,1.83
2023-06-05T21:08:54.858Z,1.98
2023-06-05T21:11:58.734Z,1.77
2023-06-05T21:15:03.718Z,1.45
2023-06-05T21:18:11.258Z,1.80
2023-06-05T21:21:17.425Z,1.90
2023-06-05T21:24:21.110Z,1.45
2023-06-05T21:27:25.805Z,1.77
2023-06-05T21:30:30.874Z,1.77
2023-06-05T21:33:36.432Z,1.73
2023-06-05T21:36:39.816Z,1.70
2023-06-05T21:39:44.036Z,1.27
2023-06-05T21:42:47.835Z,1.55
2023-06-05T21:45:53.209Z,1.60
2023-06-05T21:48:57.232Z,1.38
2023-06-05T21:52:01.612Z,1.40
2023-06-05T21:55:05.651Z,1.60
2023-06-05T21:58:09.380Z,1.38
2023-06-05T22:01:14.280Z,1.75
2023-06-05T22:04:18.067Z,1.70
2023-06-05T22:07:21.630Z,1.60
2023-06-05T22:10:25.542Z,1.60
2023-06-05T22:13:30.792Z,1.65
2023-06-05T22:16:38.697Z,1.52
2023-06-05T22:19:43.002Z,1.95
2023-06-05T22:22:47.830Z,2.40
2023-06-05T22:25:53.412Z,1.48
2023-06-05T22:29:01.784Z,1.75
2023-06-05T22:32:07.598Z,1.73
2023-06-05T22:35:12.856Z,1.23
2023-06-05T22:38:16.705Z,1.77
2023-06-05T22:41:20.350Z,1.33
2023-06-05T22:44:25.875Z,1.75
2023-06-05T22:47:33.865Z,1.60
2023-06-05T22:50:38.823Z,1.88
2023-06-05T22:53:43.300Z,1.67
2023-06-05T22:56:47.023Z,1.50
2023-06-05T22:59:50.978Z,1.52
2023-06-05T23:02:57.322Z,1.27
2023-06-05T23:06:01.468Z,1.35
2023-06-05T23:09:05.395Z,1.98
2023-06-05T23:12:09.326Z,1.77
2023-06-05T23:15:13.782Z,1.63
2023-06-05T23:18:18.587Z,1.52
2023-06-05T23:21:22.882Z,1.85
2023-06-05T23:24:28.297Z,1.48
2023-06-05T23:27:32.089Z,1.63
2023-06-05T23:30:35.775Z,1.73
2023-06-05T23:33:41.464Z,1.70
2023-06-05T23:36:52.049Z,1.90
2023-06-05T23:39:55.806Z,1.77
2023-06-05T23:43:00.432Z,1.63
2023-06-05T23:46:03.887Z,1.88
2023-06-05T23:49:08.914Z,1.73
2023-06-05T23:52:12.743Z,1.45
2023-06-05T23:55:17.251Z,1.90
2023-06-05T23:58:22.135Z,1.90
